sensor_id;sensor_type;location;lat;lon;timestamp;temperature;humidity
36444;DHT22;24692;45.642;13.806;2023-05-15T00:00:41;13.80;99.90
36444;DHT22;24692;45.642;13.806;2023-05-15T00:03:08;13.80;99.90
36444;DHT22;24692;45.642;13.806;2023-05-15T00:05:34;13.70;99.90
36444;DHT22;24692;45.642;13.806;2023-05-15T00:08:00;13.70;99.90
36444;DHT22;24692;45.642;13.806;2023-05-15T00:10:26;13.60;99.90
36444;DHT22;24692;45.642;13.806;2023-05-15T00:12:51;13.60;99.90
36444;DHT22;24692;45.642;13.806;2023-05-15T00:15:17;13.60;99.90
36444;DHT22;24692;45.642;13.806;2023-05-15T00:17:42;13.60;99.90
36444;DHT22;24692;45.642;13.806;2023-05-15T00:20:08;13.50;99.90
36444;DHT22;24692;45.642;13.806;2023-05-15T00:22:34;13.50;99.90
36444;DHT22;24692;45.642;13.806;2023-05-15T00:25:00;13.50;99.90
36444;DHT22;24692;45.642;13.806;2023-05-15T00:27:26;13.50;99.90
36444;DHT22;24692;45.642;13.806;2023-05-15T00:29:52;13.50;99.90
36444;DHT22;24692;45.642;13.806;2023-05-15T00:32:18;13.40;99.90
36444;DHT22;24692;45.642;13.806;2023-05-15T00:34:43;13.40;99.90
36444;DHT22;24692;45.642;13.806;2023-05-15T00:37:09;13.40;99.90
36444;DHT22;24692;45.642;13.806;2023-05-15T00:39:35;13.40;99.90
36444;DHT22;24692;45.642;13.806;2023-05-15T00:42:02;13.40;99.90
36444;DHT22;24692;45.642;13.806;2023-05-15T00:44:30;13.40;99.90
36444;DHT22;24692;45.642;13.806;2023-05-15T00:46:57;13.40;99.90
36444;DHT22;24692;45.642;13.806;2023-05-15T00:49:23;13.50;99.90
36444;DHT22;24692;45.642;13.806;2023-05-15T00:51:52;13.40;99.90
36444;DHT22;24692;45.642;13.806;2023-05-15T00:54:18;13.40;99.90
36444;DHT22;24692;45.642;13.806;2023-05-15T00:56:45;13.40;99.90
36444;DHT22;24692;45.642;13.806;2023-05-15T00:59:12;13.40;99.90
36444;DHT22;24692;45.642;13.806;2023-05-15T01:01:38;13.30;99.90
36444;DHT22;24692;45.642;13.806;2023-05-15T01:04:04;13.30;99.90
36444;DHT22;24692;45.642;13.806;2023-05-15T01:06:30;13.30;99.90
36444;DHT22;24692;45.642;13.806;2023-05-15T01:08:58;13.20;99.90
36444;DHT22;24692;45.642;13.806;2023-05-15T01:11:27;13.20;99.90
36444;DHT22;24692;45.642;13.806;2023-05-15T01:14:02;13.10;99.90
36444;DHT22;24692;45.642;13.806;2023-05-15T01:16:28;12.90;99.90
36444;DHT22;24692;45.642;13.806;2023-05-15T01:18:54;12.90;99.90
36444;DHT22;24692;45.642;13.806;2023-05-15T01:29:53;12.50;99.90
36444;DHT22;24692;45.642;13.806;2023-05-15T01:38:14;12.50;99.90
36444;DHT22;24692;45.642;13.806;2023-05-15T01:40:44;12.50;99.90
36444;DHT22;24692;45.642;13.806;2023-05-15T01:43:17;12.50;99.90
36444;DHT22;24692;45.642;13.806;2023-05-15T01:45:43;12.60;99.90
36444;DHT22;24692;45.642;13.806;2023-05-15T01:48:10;12.60;99.90
36444;DHT22;24692;45.642;13.806;2023-05-15T01:50:38;12.60;99.90
36444;DHT22;24692;45.642;13.806;2023-05-15T01:53:06;12.60;99.90
36444;DHT22;24692;45.642;13.806;2023-05-15T01:55:34;12.50;99.90
36444;DHT22;24692;45.642;13.806;2023-05-15T01:58:00;12.40;99.90
36444;DHT22;24692;45.642;13.806;2023-05-15T02:00:28;12.30;99.90
36444;DHT22;24692;45.642;13.806;2023-05-15T02:02:56;12.40;99.90
36444;DHT22;24692;45.642;13.806;2023-05-15T02:05:22;12.50;99.90
36444;DHT22;24692;45.642;13.806;2023-05-15T02:07:48;12.50;99.90
36444;DHT22;24692;45.642;13.806;2023-05-15T02:10:16;12.60;99.90
36444;DHT22;24692;45.642;13.806;2023-05-15T02:12:43;12.60;99.90
36444;DHT22;24692;45.642;13.806;2023-05-15T02:15:09;12.60;99.90
36444;DHT22;24692;45.642;13.806;2023-05-15T02:17:36;12.70;99.90
36444;DHT22;24692;45.642;13.806;2023-05-15T02:20:02;12.80;99.90
36444;DHT22;24692;45.642;13.806;2023-05-15T02:22:30;12.80;99.90
36444;DHT22;24692;45.642;13.806;2023-05-15T02:24:55;12.80;99.90
36444;DHT22;24692;45.642;13.806;2023-05-15T02:27:29;12.80;99.90
36444;DHT22;24692;45.642;13.806;2023-05-15T02:35:56;13.00;99.90
36444;DHT22;24692;45.642;13.806;2023-05-15T02:38:34;12.90;99.90
36444;DHT22;24692;45.642;13.806;2023-05-15T02:41:02;13.00;99.90
36444;DHT22;24692;45.642;13.806;2023-05-15T02:43:30;13.00;99.90
36444;DHT22;24692;45.642;13.806;2023-05-15T02:45:58;13.00;99.90
36444;DHT22;24692;45.642;13.806;2023-05-15T02:48:25;13.00;99.90
36444;DHT22;24692;45.642;13.806;2023-05-15T02:50:51;12.90;99.90
36444;DHT22;24692;45.642;13.806;2023-05-15T02:53:17;12.90;99.90
36444;DHT22;24692;45.642;13.806;2023-05-15T02:55:43;12.90;99.90
36444;DHT22;24692;45.642;13.806;2023-05-15T02:58:08;12.90;99.90
36444;DHT22;24692;45.642;13.806;2023-05-15T03:00:34;12.90;99.90
36444;DHT22;24692;45.642;13.806;2023-05-15T03:03:00;13.00;99.90
36444;DHT22;24692;45.642;13.806;2023-05-15T03:05:25;13.00;99.90
36444;DHT22;24692;45.642;13.806;2023-05-15T03:07:51;13.00;99.90
36444;DHT22;24692;45.642;13.806;2023-05-15T03:10:17;13.10;99.90
36444;DHT22;24692;45.642;13.806;2023-05-15T03:12:42;13.10;99.90
36444;DHT22;24692;45.642;13.806;2023-05-15T03:15:08;13.10;99.90
36444;DHT22;24692;45.642;13.806;2023-05-15T03:17:34;13.10;99.90
36444;DHT22;24692;45.642;13.806;2023-05-15T03:19:59;13.20;99.90
36444;DHT22;24692;45.642;13.806;2023-05-15T03:22:25;13.20;99.90
36444;DHT22;24692;45.642;13.806;2023-05-15T03:24:51;13.20;99.90
36444;DHT22;24692;45.642;13.806;2023-05-15T03:27:16;13.20;99.90
36444;DHT22;24692;45.642;13.806;2023-05-15T03:29:42;13.20;99.90
36444;DHT22;24692;45.642;13.806;2023-05-15T03:32:08;13.30;99.90
36444;DHT22;24692;45.642;13.806;2023-05-15T03:34:34;13.30;99.90
36444;DHT22;24692;45.642;13.806;2023-05-15T03:36:59;13.20;99.90
36444;DHT22;24692;45.642;13.806;2023-05-15T03:39:25;13.30;99.90
36444;DHT22;24692;45.642;13.806;2023-05-15T03:41:51;13.30;99.90
36444;DHT22;24692;45.642;13.806;2023-05-15T03:44:16;13.30;99.90
36444;DHT22;24692;45.642;13.806;2023-05-15T03:46:42;13.30;99.90
36444;DHT22;24692;45.642;13.806;2023-05-15T03:49:07;13.30;99.90
36444;DHT22;24692;45.642;13.806;2023-05-15T03:51:34;13.30;99.90
36444;DHT22;24692;45.642;13.806;2023-05-15T03:53:59;13.30;99.90
36444;DHT22;24692;45.642;13.806;2023-05-15T03:56:25;13.20;99.90
36444;DHT22;24692;45.642;13.806;2023-05-15T03:58:50;13.30;99.90
36444;DHT22;24692;45.642;13.806;2023-05-15T04:01:16;13.30;99.90
36444;DHT22;24692;45.642;13.806;2023-05-15T04:03:42;13.40;99.90
36444;DHT22;24692;45.642;13.806;2023-05-15T04:06:08;13.40;99.90
36444;DHT22;24692;45.642;13.806;2023-05-15T04:08:33;13.30;99.90
36444;DHT22;24692;45.642;13.806;2023-05-15T04:10:59;13.40;99.90
36444;DHT22;24692;45.642;13.806;2023-05-15T04:13:25;13.40;99.90
36444;DHT22;24692;45.642;13.806;2023-05-15T04:15:50;13.30;99.90
36444;DHT22;24692;45.642;13.806;2023-05-15T04:18:16;13.30;99.90
36444;DHT22;24692;45.642;13.806;2023-05-15T04:20:41;13.40;99.90
36444;DHT22;24692;45.642;13.806;2023-05-15T04:23:07;13.40;99.90
36444;DHT22;24692;45.642;13.806;2023-05-15T04:25:33;13.50;99.90
36444;DHT22;24692;45.642;13.806;2023-05-15T04:27:59;13.50;99.90
36444;DHT22;24692;45.642;13.806;2023-05-15T04:30:24;13.50;99.90
36444;DHT22;24692;45.642;13.806;2023-05-15T04:32:51;13.50;99.90
36444;DHT22;24692;45.642;13.806;2023-05-15T04:35:16;13.60;99.90
36444;DHT22;24692;45.642;13.806;2023-05-15T04:37:42;13.60;99.90
36444;DHT22;24692;45.642;13.806;2023-05-15T04:40:10;13.60;99.90
36444;DHT22;24692;45.642;13.806;2023-05-15T04:42:36;13.60;99.90
36444;DHT22;24692;45.642;13.806;2023-05-15T04:45:02;13.60;99.90
36444;DHT22;24692;45.642;13.806;2023-05-15T04:47:28;13.60;99.90
36444;DHT22;24692;45.642;13.806;2023-05-15T04:49:54;13.70;99.90
36444;DHT22;24692;45.642;13.806;2023-05-15T04:52:19;13.80;99.90
36444;DHT22;24692;45.642;13.806;2023-05-15T04:54:45;13.90;99.90
36444;DHT22;24692;45.642;13.806;2023-05-15T04:57:12;14.00;99.90
36444;DHT22;24692;45.642;13.806;2023-05-15T04:59:38;14.00;99.90
36444;DHT22;24692;45.642;13.806;2023-05-15T05:02:03;14.00;99.90
36444;DHT22;24692;45.642;13.806;2023-05-15T05:04:29;14.00;99.90
36444;DHT22;24692;45.642;13.806;2023-05-15T05:06:55;14.00;99.90
36444;DHT22;24692;45.642;13.806;2023-05-15T05:09:21;14.00;99.90
36444;DHT22;24692;45.642;13.806;2023-05-15T05:11:46;14.00;99.90
36444;DHT22;24692;45.642;13.806;2023-05-15T05:14:13;14.10;99.90
36444;DHT22;24692;45.642;13.806;2023-05-15T05:16:40;14.10;99.90
36444;DHT22;24692;45.642;13.806;2023-05-15T05:19:05;14.10;99.90
36444;DHT22;24692;45.642;13.806;2023-05-15T05:21:32;14.20;99.90
36444;DHT22;24692;45.642;13.806;2023-05-15T05:23:58;14.30;99.90
36444;DHT22;24692;45.642;13.806;2023-05-15T05:26:24;14.30;99.90
36444;DHT22;24692;45.642;13.806;2023-05-15T05:28:50;14.30;99.90
36444;DHT22;24692;45.642;13.806;2023-05-15T05:31:16;14.40;99.90
36444;DHT22;24692;45.642;13.806;2023-05-15T05:33:42;14.50;99.90
36444;DHT22;24692;45.642;13.806;2023-05-15T05:36:08;14.60;99.90
36444;DHT22;24692;45.642;13.806;2023-05-15T05:38:35;14.70;99.90
36444;DHT22;24692;45.642;13.806;2023-05-15T05:41:01;14.80;99.90
36444;DHT22;24692;45.642;13.806;2023-05-15T05:43:27;14.80;99.90
36444;DHT22;24692;45.642;13.806;2023-05-15T05:45:53;14.90;99.90
36444;DHT22;24692;45.642;13.806;2023-05-15T05:48:19;15.00;99.90
36444;DHT22;24692;45.642;13.806;2023-05-15T05:50:44;15.10;99.90
36444;DHT22;24692;45.642;13.806;2023-05-15T05:53:10;15.20;99.90
36444;DHT22;24692;45.642;13.806;2023-05-15T05:55:36;15.30;99.90
36444;DHT22;24692;45.642;13.806;2023-05-15T05:58:02;15.40;99.90
36444;DHT22;24692;45.642;13.806;2023-05-15T06:00:28;15.50;99.90
36444;DHT22;24692;45.642;13.806;2023-05-15T06:02:55;15.70;99.90
36444;DHT22;24692;45.642;13.806;2023-05-15T06:05:22;15.90;99.90
36444;DHT22;24692;45.642;13.806;2023-05-15T06:07:48;16.10;99.90
36444;DHT22;24692;45.642;13.806;2023-05-15T06:10:14;16.30;99.90
36444;DHT22;24692;45.642;13.806;2023-05-15T06:12:40;16.50;99.90
36444;DHT22;24692;45.642;13.806;2023-05-15T06:15:06;16.60;99.90
36444;DHT22;24692;45.642;13.806;2023-05-15T06:17:32;16.70;99.90
36444;DHT22;24692;45.642;13.806;2023-05-15T06:19:57;16.80;99.90
36444;DHT22;24692;45.642;13.806;2023-05-15T06:22:23;17.10;99.90
36444;DHT22;24692;45.642;13.806;2023-05-15T06:24:51;17.20;99.90
36444;DHT22;24692;45.642;13.806;2023-05-15T06:27:17;17.50;99.90
36444;DHT22;24692;45.642;13.806;2023-05-15T06:29:42;17.60;99.90
36444;DHT22;24692;45.642;13.806;2023-05-15T06:32:08;17.70;99.90
36444;DHT22;24692;45.642;13.806;2023-05-15T06:34:34;17.90;99.90
36444;DHT22;24692;45.642;13.806;2023-05-15T06:37:00;17.90;99.90
36444;DHT22;24692;45.642;13.806;2023-05-15T06:39:26;17.90;99.90
36444;DHT22;24692;45.642;13.806;2023-05-15T06:41:51;17.80;99.90
36444;DHT22;24692;45.642;13.806;2023-05-15T06:44:22;17.40;99.90
36444;DHT22;24692;45.642;13.806;2023-05-15T06:46:48;17.10;99.90
36444;DHT22;24692;45.642;13.806;2023-05-15T06:49:16;16.80;99.90
36444;DHT22;24692;45.642;13.806;2023-05-15T06:51:44;16.50;99.90
36444;DHT22;24692;45.642;13.806;2023-05-15T06:54:10;16.30;99.90
36444;DHT22;24692;45.642;13.806;2023-05-15T06:56:38;16.30;99.90
36444;DHT22;24692;45.642;13.806;2023-05-15T06:59:04;16.30;99.90
36444;DHT22;24692;45.642;13.806;2023-05-15T07:01:31;16.30;99.90
36444;DHT22;24692;45.642;13.806;2023-05-15T07:03:57;16.40;99.90
36444;DHT22;24692;45.642;13.806;2023-05-15T07:06:24;16.40;99.90
36444;DHT22;24692;45.642;13.806;2023-05-15T07:08:53;16.40;99.90
36444;DHT22;24692;45.642;13.806;2023-05-15T07:11:20;16.40;99.90
36444;DHT22;24692;45.642;13.806;2023-05-15T07:13:48;16.50;99.90
36444;DHT22;24692;45.642;13.806;2023-05-15T07:16:15;16.60;99.90
36444;DHT22;24692;45.642;13.806;2023-05-15T07:18:41;16.60;99.90
36444;DHT22;24692;45.642;13.806;2023-05-15T07:21:11;16.70;99.90
36444;DHT22;24692;45.642;13.806;2023-05-15T07:23:37;16.70;99.90
36444;DHT22;24692;45.642;13.806;2023-05-15T07:26:03;16.80;99.90
36444;DHT22;24692;45.642;13.806;2023-05-15T07:28:33;16.90;99.90
36444;DHT22;24692;45.642;13.806;2023-05-15T07:31:01;17.10;99.90
36444;DHT22;24692;45.642;13.806;2023-05-15T07:33:26;17.20;99.90
36444;DHT22;24692;45.642;13.806;2023-05-15T07:35:52;17.30;99.90
36444;DHT22;24692;45.642;13.806;2023-05-15T07:38:18;17.40;99.90
36444;DHT22;24692;45.642;13.806;2023-05-15T07:40:44;17.60;99.90
36444;DHT22;24692;45.642;13.806;2023-05-15T07:43:10;18.00;99.90
36444;DHT22;24692;45.642;13.806;2023-05-15T07:45:37;18.30;99.90
36444;DHT22;24692;45.642;13.806;2023-05-15T07:48:16;18.60;99.90
36444;DHT22;24692;45.642;13.806;2023-05-15T07:50:46;18.70;99.90
36444;DHT22;24692;45.642;13.806;2023-05-15T07:53:14;18.80;99.90
36444;DHT22;24692;45.642;13.806;2023-05-15T07:55:43;19.10;99.90
36444;DHT22;24692;45.642;13.806;2023-05-15T07:58:09;19.20;99.90
36444;DHT22;24692;45.642;13.806;2023-05-15T08:00:35;19.50;99.90
36444;DHT22;24692;45.642;13.806;2023-05-15T08:03:01;19.70;99.90
36444;DHT22;24692;45.642;13.806;2023-05-15T08:05:27;19.80;99.90
36444;DHT22;24692;45.642;13.806;2023-05-15T08:07:54;19.80;99.90
36444;DHT22;24692;45.642;13.806;2023-05-15T08:10:21;19.70;99.90
36444;DHT22;24692;45.642;13.806;2023-05-15T08:12:46;20.10;99.90
36444;DHT22;24692;45.642;13.806;2023-05-15T08:15:13;21.70;99.90
36444;DHT22;24692;45.642;13.806;2023-05-15T08:17:39;23.80;99.90
36444;DHT22;24692;45.642;13.806;2023-05-15T08:20:05;24.70;99.90
36444;DHT22;24692;45.642;13.806;2023-05-15T08:22:31;24.30;99.90
36444;DHT22;24692;45.642;13.806;2023-05-15T08:24:58;24.80;99.90
36444;DHT22;24692;45.642;13.806;2023-05-15T08:27:24;25.00;99.90
36444;DHT22;24692;45.642;13.806;2023-05-15T08:29:50;25.10;99.90
36444;DHT22;24692;45.642;13.806;2023-05-15T08:32:17;25.90;99.90
36444;DHT22;24692;45.642;13.806;2023-05-15T08:34:42;26.40;99.90
36444;DHT22;24692;45.642;13.806;2023-05-15T08:37:08;26.10;99.90
36444;DHT22;24692;45.642;13.806;2023-05-15T08:39:34;25.90;99.90
36444;DHT22;24692;45.642;13.806;2023-05-15T08:42:19;26.70;99.90
36444;DHT22;24692;45.642;13.806;2023-05-15T08:44:46;26.60;99.90
36444;DHT22;24692;45.642;13.806;2023-05-15T08:47:13;25.50;99.90
36444;DHT22;24692;45.642;13.806;2023-05-15T08:52:16;25.30;99.90
36444;DHT22;24692;45.642;13.806;2023-05-15T08:54:42;24.90;99.90
36444;DHT22;24692;45.642;13.806;2023-05-15T08:57:08;24.90;99.90
36444;DHT22;24692;45.642;13.806;2023-05-15T08:59:36;22.90;99.90
36444;DHT22;24692;45.642;13.806;2023-05-15T09:02:02;20.80;99.90
36444;DHT22;24692;45.642;13.806;2023-05-15T09:04:28;20.20;99.90
36444;DHT22;24692;45.642;13.806;2023-05-15T09:06:53;19.90;99.90
36444;DHT22;24692;45.642;13.806;2023-05-15T09:09:20;20.60;99.90
36444;DHT22;24692;45.642;13.806;2023-05-15T09:11:47;21.40;99.90
36444;DHT22;24692;45.642;13.806;2023-05-15T09:14:13;20.90;99.90
36444;DHT22;24692;45.642;13.806;2023-05-15T09:16:39;20.90;99.90
36444;DHT22;24692;45.642;13.806;2023-05-15T09:19:05;21.20;99.90
36444;DHT22;24692;45.642;13.806;2023-05-15T09:21:32;21.40;99.90
36444;DHT22;24692;45.642;13.806;2023-05-15T09:24:18;22.50;99.90
36444;DHT22;24692;45.642;13.806;2023-05-15T09:27:03;22.30;99.90
36444;DHT22;24692;45.642;13.806;2023-05-15T09:29:33;21.80;99.90
36444;DHT22;24692;45.642;13.806;2023-05-15T09:32:04;22.70;99.90
36444;DHT22;24692;45.642;13.806;2023-05-15T09:34:32;21.90;99.90
36444;DHT22;24692;45.642;13.806;2023-05-15T09:37:00;21.40;99.90
36444;DHT22;24692;45.642;13.806;2023-05-15T09:39:26;21.40;99.90
36444;DHT22;24692;45.642;13.806;2023-05-15T09:41:52;21.50;99.90
36444;DHT22;24692;45.642;13.806;2023-05-15T09:44:23;21.40;99.90
36444;DHT22;24692;45.642;13.806;2023-05-15T09:46:51;22.50;99.90
36444;DHT22;24692;45.642;13.806;2023-05-15T09:49:20;22.30;99.90
36444;DHT22;24692;45.642;13.806;2023-05-15T09:51:47;21.90;99.90
36444;DHT22;24692;45.642;13.806;2023-05-15T09:54:17;22.40;99.90
36444;DHT22;24692;45.642;13.806;2023-05-15T09:56:46;23.10;99.90
36444;DHT22;24692;45.642;13.806;2023-05-15T09:59:17;23.10;99.90
36444;DHT22;24692;45.642;13.806;2023-05-15T10:01:44;21.90;99.90
36444;DHT22;24692;45.642;13.806;2023-05-15T10:04:11;21.40;99.90
36444;DHT22;24692;45.642;13.806;2023-05-15T10:06:56;21.40;99.90
36444;DHT22;24692;45.642;13.806;2023-05-15T10:09:21;22.20;99.90
36444;DHT22;24692;45.642;13.806;2023-05-15T10:11:50;22.50;99.90
36444;DHT22;24692;45.642;13.806;2023-05-15T10:14:17;22.90;99.90
36444;DHT22;24692;45.642;13.806;2023-05-15T10:16:44;23.60;99.90
36444;DHT22;24692;45.642;13.806;2023-05-15T10:19:11;23.80;99.90
36444;DHT22;24692;45.642;13.806;2023-05-15T10:21:40;24.10;99.90
36444;DHT22;24692;45.642;13.806;2023-05-15T10:24:06;23.60;99.90
36444;DHT22;24692;45.642;13.806;2023-05-15T10:26:41;22.70;99.90
36444;DHT22;24692;45.642;13.806;2023-05-15T10:29:12;22.20;99.90
36444;DHT22;24692;45.642;13.806;2023-05-15T10:31:41;21.50;99.90
36444;DHT22;24692;45.642;13.806;2023-05-15T10:34:10;22.10;99.90
36444;DHT22;24692;45.642;13.806;2023-05-15T10:36:37;22.60;99.90
36444;DHT22;24692;45.642;13.806;2023-05-15T10:39:06;22.90;99.90
36444;DHT22;24692;45.642;13.806;2023-05-15T10:41:35;22.70;99.90
36444;DHT22;24692;45.642;13.806;2023-05-15T10:44:05;22.80;99.90
36444;DHT22;24692;45.642;13.806;2023-05-15T10:46:34;23.00;99.90
36444;DHT22;24692;45.642;13.806;2023-05-15T10:49:03;23.60;99.90
36444;DHT22;24692;45.642;13.806;2023-05-15T10:51:33;24.10;99.90
36444;DHT22;24692;45.642;13.806;2023-05-15T10:54:03;24.80;99.90
36444;DHT22;24692;45.642;13.806;2023-05-15T10:56:37;24.40;99.90
36444;DHT22;24692;45.642;13.806;2023-05-15T10:59:08;23.20;99.90
36444;DHT22;24692;45.642;13.806;2023-05-15T11:01:37;22.30;99.90
36444;DHT22;24692;45.642;13.806;2023-05-15T11:04:14;22.10;99.90
36444;DHT22;24692;45.642;13.806;2023-05-15T11:06:45;21.30;99.90
36444;DHT22;24692;45.642;13.806;2023-05-15T11:11:58;23.10;99.90
36444;DHT22;24692;45.642;13.806;2023-05-15T11:17:01;23.30;99.90
36444;DHT22;24692;45.642;13.806;2023-05-15T11:21:57;24.50;99.90
36444;DHT22;24692;45.642;13.806;2023-05-15T11:24:30;24.20;99.90
36444;DHT22;24692;45.642;13.806;2023-05-15T11:26:59;24.90;99.90
36444;DHT22;24692;45.642;13.806;2023-05-15T11:29:24;25.40;99.90
36444;DHT22;24692;45.642;13.806;2023-05-15T11:31:51;25.50;99.90
36444;DHT22;24692;45.642;13.806;2023-05-15T11:34:34;25.00;99.90
36444;DHT22;24692;45.642;13.806;2023-05-15T11:37:00;25.00;99.90
36444;DHT22;24692;45.642;13.806;2023-05-15T11:39:26;25.80;99.90
36444;DHT22;24692;45.642;13.806;2023-05-15T11:41:53;25.90;99.90
36444;DHT22;24692;45.642;13.806;2023-05-15T11:44:23;26.20;99.90
36444;DHT22;24692;45.642;13.806;2023-05-15T11:46:49;25.70;99.90
36444;DHT22;24692;45.642;13.806;2023-05-15T11:49:19;25.10;99.90
36444;DHT22;24692;45.642;13.806;2023-05-15T11:51:46;24.40;99.90
36444;DHT22;24692;45.642;13.806;2023-05-15T11:54:12;23.30;99.90
36444;DHT22;24692;45.642;13.806;2023-05-15T11:56:43;23.00;99.90
36444;DHT22;24692;45.642;13.806;2023-05-15T11:59:12;23.20;99.90
36444;DHT22;24692;45.642;13.806;2023-05-15T12:01:40;23.40;99.90
36444;DHT22;24692;45.642;13.806;2023-05-15T12:04:14;24.70;99.90
36444;DHT22;24692;45.642;13.806;2023-05-15T12:06:41;25.50;99.90
36444;DHT22;24692;45.642;13.806;2023-05-15T12:09:16;24.80;99.90
36444;DHT22;24692;45.642;13.806;2023-05-15T12:11:53;24.20;99.90
36444;DHT22;24692;45.642;13.806;2023-05-15T12:14:30;24.00;99.90
36444;DHT22;24692;45.642;13.806;2023-05-15T12:16:59;24.10;99.90
36444;DHT22;24692;45.642;13.806;2023-05-15T12:19:27;23.50;99.90
36444;DHT22;24692;45.642;13.806;2023-05-15T12:21:53;23.10;99.90
36444;DHT22;24692;45.642;13.806;2023-05-15T12:24:19;23.20;99.90
36444;DHT22;24692;45.642;13.806;2023-05-15T12:26:45;23.10;99.90
36444;DHT22;24692;45.642;13.806;2023-05-15T12:29:11;23.80;99.90
36444;DHT22;24692;45.642;13.806;2023-05-15T12:31:37;23.80;99.90
36444;DHT22;24692;45.642;13.806;2023-05-15T12:34:03;23.80;99.90
36444;DHT22;24692;45.642;13.806;2023-05-15T12:36:29;24.00;99.90
36444;DHT22;24692;45.642;13.806;2023-05-15T12:38:56;24.50;99.90
36444;DHT22;24692;45.642;13.806;2023-05-15T12:41:28;25.10;99.90
36444;DHT22;24692;45.642;13.806;2023-05-15T12:43:54;25.20;99.90
36444;DHT22;24692;45.642;13.806;2023-05-15T12:46:24;25.10;99.90
36444;DHT22;24692;45.642;13.806;2023-05-15T12:48:50;24.30;99.90
36444;DHT22;24692;45.642;13.806;2023-05-15T12:51:17;23.90;99.90
36444;DHT22;24692;45.642;13.806;2023-05-15T12:53:43;24.10;99.90
36444;DHT22;24692;45.642;13.806;2023-05-15T12:56:09;24.60;99.90
36444;DHT22;24692;45.642;13.806;2023-05-15T12:58:40;24.60;99.90
36444;DHT22;24692;45.642;13.806;2023-05-15T13:01:06;24.50;99.90
36444;DHT22;24692;45.642;13.806;2023-05-15T13:03:31;24.70;99.90
36444;DHT22;24692;45.642;13.806;2023-05-15T13:05:57;24.70;99.90
36444;DHT22;24692;45.642;13.806;2023-05-15T13:08:23;24.40;99.90
36444;DHT22;24692;45.642;13.806;2023-05-15T13:10:56;24.20;99.90
36444;DHT22;24692;45.642;13.806;2023-05-15T13:13:22;23.80;99.90
36444;DHT22;24692;45.642;13.806;2023-05-15T13:15:48;24.60;99.90
36444;DHT22;24692;45.642;13.806;2023-05-15T13:18:16;25.20;99.90
36444;DHT22;24692;45.642;13.806;2023-05-15T13:20:47;25.70;99.90
36444;DHT22;24692;45.642;13.806;2023-05-15T13:23:15;25.10;99.90
36444;DHT22;24692;45.642;13.806;2023-05-15T13:25:42;23.80;99.90
36444;DHT22;24692;45.642;13.806;2023-05-15T13:28:09;23.40;99.90
36444;DHT22;24692;45.642;13.806;2023-05-15T13:30:35;23.20;99.90
36444;DHT22;24692;45.642;13.806;2023-05-15T13:33:03;23.40;99.90
36444;DHT22;24692;45.642;13.806;2023-05-15T13:35:29;23.50;99.90
36444;DHT22;24692;45.642;13.806;2023-05-15T13:37:55;23.80;99.90
36444;DHT22;24692;45.642;13.806;2023-05-15T13:40:21;24.40;99.90
36444;DHT22;24692;45.642;13.806;2023-05-15T13:42:47;25.10;99.90
36444;DHT22;24692;45.642;13.806;2023-05-15T13:45:14;24.50;99.90
36444;DHT22;24692;45.642;13.806;2023-05-15T13:47:41;24.60;99.90
36444;DHT22;24692;45.642;13.806;2023-05-15T13:50:07;24.40;99.90
36444;DHT22;24692;45.642;13.806;2023-05-15T13:52:34;24.10;99.90
36444;DHT22;24692;45.642;13.806;2023-05-15T13:55:00;23.50;99.90
36444;DHT22;24692;45.642;13.806;2023-05-15T13:57:26;23.20;99.90
36444;DHT22;24692;45.642;13.806;2023-05-15T13:59:51;23.90;99.90
36444;DHT22;24692;45.642;13.806;2023-05-15T14:02:17;24.20;99.90
36444;DHT22;24692;45.642;13.806;2023-05-15T14:04:43;24.40;99.90
36444;DHT22;24692;45.642;13.806;2023-05-15T14:07:08;24.90;99.90
36444;DHT22;24692;45.642;13.806;2023-05-15T14:09:34;25.10;99.90
36444;DHT22;24692;45.642;13.806;2023-05-15T14:12:00;25.10;99.90
36444;DHT22;24692;45.642;13.806;2023-05-15T14:14:25;24.90;99.90
36444;DHT22;24692;45.642;13.806;2023-05-15T14:16:51;24.30;99.90
36444;DHT22;24692;45.642;13.806;2023-05-15T14:19:17;24.40;99.90
36444;DHT22;24692;45.642;13.806;2023-05-15T14:21:42;24.70;99.90
36444;DHT22;24692;45.642;13.806;2023-05-15T14:24:08;25.00;99.90
36444;DHT22;24692;45.642;13.806;2023-05-15T14:26:34;24.30;99.90
36444;DHT22;24692;45.642;13.806;2023-05-15T14:28:59;24.50;99.90
36444;DHT22;24692;45.642;13.806;2023-05-15T14:31:25;23.90;99.90
36444;DHT22;24692;45.642;13.806;2023-05-15T14:33:51;24.20;99.90
36444;DHT22;24692;45.642;13.806;2023-05-15T14:36:17;24.30;99.90
36444;DHT22;24692;45.642;13.806;2023-05-15T14:38:42;24.60;99.90
36444;DHT22;24692;45.642;13.806;2023-05-15T14:41:12;24.70;99.90
36444;DHT22;24692;45.642;13.806;2023-05-15T14:43:38;24.90;99.90
36444;DHT22;24692;45.642;13.806;2023-05-15T14:46:04;24.30;99.90
36444;DHT22;24692;45.642;13.806;2023-05-15T14:48:30;24.30;99.90
36444;DHT22;24692;45.642;13.806;2023-05-15T14:50:57;24.60;99.90
36444;DHT22;24692;45.642;13.806;2023-05-15T14:53:24;24.80;99.90
36444;DHT22;24692;45.642;13.806;2023-05-15T14:55:49;24.60;99.90
36444;DHT22;24692;45.642;13.806;2023-05-15T14:58:15;24.20;99.90
36444;DHT22;24692;45.642;13.806;2023-05-15T15:00:41;23.90;99.90
36444;DHT22;24692;45.642;13.806;2023-05-15T15:03:06;23.50;99.90
36444;DHT22;24692;45.642;13.806;2023-05-15T15:05:32;23.30;99.90
36444;DHT22;24692;45.642;13.806;2023-05-15T15:08:06;23.30;99.90
36444;DHT22;24692;45.642;13.806;2023-05-15T15:10:33;23.40;99.90
36444;DHT22;24692;45.642;13.806;2023-05-15T15:12:59;23.50;99.90
36444;DHT22;24692;45.642;13.806;2023-05-15T15:15:25;23.40;99.90
36444;DHT22;24692;45.642;13.806;2023-05-15T15:17:51;22.80;99.90
36444;DHT22;24692;45.642;13.806;2023-05-15T15:20:19;22.10;99.90
36444;DHT22;24692;45.642;13.806;2023-05-15T15:22:47;21.40;99.90
36444;DHT22;24692;45.642;13.806;2023-05-15T15:25:13;21.60;99.90
36444;DHT22;24692;45.642;13.806;2023-05-15T15:27:39;21.50;99.90
36444;DHT22;24692;45.642;13.806;2023-05-15T15:30:06;21.40;99.90
36444;DHT22;24692;45.642;13.806;2023-05-15T15:32:33;21.40;99.90
36444;DHT22;24692;45.642;13.806;2023-05-15T15:34:59;21.10;99.90
36444;DHT22;24692;45.642;13.806;2023-05-15T15:37:26;21.00;99.90
36444;DHT22;24692;45.642;13.806;2023-05-15T15:39:54;21.40;99.90
36444;DHT22;24692;45.642;13.806;2023-05-15T15:42:19;21.40;99.90
36444;DHT22;24692;45.642;13.806;2023-05-15T15:44:45;21.40;99.90